Aviation Digital Data Service (ADDS)

Output produced by TAFs form (0424 UTC 24 September 2014)
found at http://aviationweather.gov/adds/tafs/
 
KGJT 232337Z 2400/2424 31010KT P6SM SCT110 
     FM240200 05004KT P6SM SKC 
     FM240600 11009KT P6SM SKC 
     FM241500 14009KT P6SM SKC 
     FM242000 31006KT P6SM FEW110